Time;durP1;ratioP1;P1;durP2;ratioP2;P2;SDS_P1;SDS_P2;PMS_P1;PMS_P2;Temp;Humidity;BMP_temperature;BMP_pressure;BME280_temperature;BME280_humidity;BME280_pressure;Samples;Min_cycle;Max_cycle;Signal;HPM_P1;HPM_P2
2021/04/21 00:02:19;;;;;;;22.45;17.35;;;;;;;11.61;58.12;99978.11;114434;1196;104534;-81
2021/04/21 00:04:47;;;;;;;22.97;18.93;;;;;;;11.60;58.36;99962.17;114389;1196;103157;-82
2021/04/21 00:07:21;;;;;;;20.83;18.07;;;;;;;11.58;58.29;99958.68;116550;1196;101688;-81
2021/04/21 00:09:50;;;;;;;22.80;18.27;;;;;;;11.54;58.41;99964.14;114638;1196;103163;-82
2021/04/21 00:12:20;;;;;;;23.93;17.20;;;;;;;11.59;58.86;99958.62;115313;1196;103026;-81
2021/04/21 00:14:49;;;;;;;23.75;18.60;;;;;;;11.59;58.74;99957.77;116662;1196;101957;-82
2021/04/21 00:17:18;;;;;;;20.40;18.20;;;;;;;11.54;58.85;99948.14;116717;1196;101180;-82
2021/04/21 00:19:45;;;;;;;22.90;19.00;;;;;;;11.56;59.04;99947.22;116737;1196;101886;-82
2021/04/21 00:22:16;;;;;;;20.80;17.88;;;;;;;11.61;58.64;99945.22;115498;1196;103508;-82
2021/04/21 00:24:43;;;;;;;26.03;19.00;;;;;;;11.59;59.41;99947.95;116642;1196;102110;-82
2021/04/21 00:27:10;;;;;;;20.73;17.93;;;;;;;11.60;59.37;99948.84;114386;1196;103188;-82
2021/04/21 00:29:40;;;;;;;23.53;18.80;;;;;;;11.64;59.28;99937.98;116621;1199;101276;-83
2021/04/21 00:32:07;;;;;;;22.30;19.53;;;;;;;11.68;58.89;99936.07;115709;1198;103083;-83
2021/04/21 00:34:37;;;;;;;21.40;19.17;;;;;;;11.74;58.72;99940.30;115947;1196;101975;-82
2021/04/21 00:37:05;;;;;;;25.30;19.45;;;;;;;11.71;58.93;99934.17;114279;1196;103165;-82
2021/04/21 00:39:45;;;;;;;24.20;20.38;;;;;;;11.73;59.10;99938.55;115610;1196;103073;-82
2021/04/21 00:42:15;;;;;;;22.40;19.85;;;;;;;11.66;59.26;99927.25;114410;1196;103766;-82
2021/04/21 00:45:08;;;;;;;27.78;21.40;;;;;;;11.62;59.15;99936.30;114181;1196;103140;-82
2021/04/21 00:47:48;;;;;;;23.77;21.23;;;;;;;11.61;59.04;99935.44;114242;1196;103126;-83
2021/04/21 00:50:31;;;;;;;27.60;20.65;;;;;;;11.56;59.71;99936.55;114277;1196;103324;-82
2021/04/21 00:53:27;;;;;;;25.33;20.93;;;;;;;11.52;59.88;99939.31;114208;1196;103115;-82
2021/04/21 00:56:13;;;;;;;29.18;22.40;;;;;;;11.52;59.80;99925.12;114440;1196;103146;-82
2021/04/21 00:59:04;;;;;;;24.23;20.97;;;;;;;11.48;59.98;99929.69;114372;1196;103635;-82
2021/04/21 01:01:32;;;;;;;29.68;22.78;;;;;;;11.49;59.97;99933.21;114414;1196;103216;-82
2021/04/21 01:03:59;;;;;;;23.65;21.15;;;;;;;11.40;59.91;99925.59;114331;1196;103258;-82
2021/04/21 01:06:33;;;;;;;24.00;21.10;;;;;;;11.37;59.95;99929.23;113995;1196;103194;-82
2021/04/21 01:09:03;;;;;;;22.15;19.63;;;;;;;11.36;60.36;99919.49;114263;1196;103684;-81
2021/04/21 01:11:51;;;;;;;26.90;21.13;;;;;;;11.33;60.17;99925.80;113758;1196;103130;-82
2021/04/21 01:14:23;;;;;;;26.07;21.37;;;;;;;11.36;60.31;99920.35;113713;1196;103255;-82
2021/04/21 01:16:54;;;;;;;34.83;22.38;;;;;;;11.33;60.17;99916.95;113631;1196;103211;-82
2021/04/21 01:19:28;;;;;;;31.00;22.50;;;;;;;11.30;60.93;99909.05;113740;1196;103204;-82
2021/04/21 01:22:02;;;;;;;25.20;21.80;;;;;;;11.25;60.60;99911.01;116746;1196;102075;-82
2021/04/21 01:24:48;;;;;;;29.70;22.33;;;;;;;11.21;60.57;99908.47;114574;1196;103508;-82
2021/04/21 01:27:21;;;;;;;26.33;23.35;;;;;;;11.23;60.83;99923.54;113540;1196;103252;-82
2021/04/21 01:29:53;;;;;;;27.23;22.63;;;;;;;11.19;61.27;99915.64;114000;1196;103284;-82
2021/04/21 01:32:24;;;;;;;28.03;24.20;;;;;;;11.11;61.39;99912.39;114262;1196;103185;-82
2021/04/21 01:34:52;;;;;;;30.57;25.17;;;;;;;11.11;61.25;99915.05;114387;1196;103155;-82
2021/04/21 01:37:24;;;;;;;27.50;23.77;;;;;;;11.11;60.97;99922.19;114370;1196;103271;-84
2021/04/21 01:39:56;;;;;;;26.43;23.38;;;;;;;11.13;61.08;99918.55;114707;1196;103179;-83
2021/04/21 01:42:27;;;;;;;28.60;23.23;;;;;;;11.17;60.67;99921.98;115961;1196;103956;-83
2021/04/21 01:44:56;;;;;;;31.43;25.73;;;;;;;11.17;60.70;99930.83;115103;1196;103098;-84
2021/04/21 01:47:23;;;;;;;28.10;23.55;;;;;;;11.13;61.30;99929.20;114377;1198;103249;-83
2021/04/21 01:50:06;;;;;;;29.00;23.68;;;;;;;11.02;61.33;99924.27;114289;1196;103193;-81
2021/04/21 01:52:51;;;;;;;26.53;23.63;;;;;;;10.98;61.76;99922.64;116684;1196;101303;-82
2021/04/21 01:55:23;;;;;;;27.65;23.68;;;;;;;10.99;61.74;99926.16;116711;1196;101035;-82
2021/04/21 01:57:58;;;;;;;34.23;25.00;;;;;;;11.05;61.67;99923.29;116718;1196;101907;-82
2021/04/21 02:00:32;;;;;;;26.57;23.03;;;;;;;11.06;61.77;99924.14;116653;1196;100990;-82
2021/04/21 02:03:18;;;;;;;33.10;23.90;;;;;;;11.03;61.67;99925.13;114724;1194;103070;-83
2021/04/21 02:06:12;;;;;;;30.73;25.50;;;;;;;11.04;61.92;99921.55;116097;1196;103098;-82
2021/04/21 02:09:17;;;;;;;26.60;23.73;;;;;;;11.02;62.25;99921.60;114383;1196;103572;-82
2021/04/21 02:11:53;;;;;;;31.97;24.30;;;;;;;11.06;62.34;99917.01;114428;1196;103240;-83
2021/04/21 02:15:04;;;;;;;29.43;24.93;;;;;;;11.12;61.93;99919.47;116763;1196;101233;-82
2021/04/21 02:18:02;;;;;;;28.40;24.05;;;;;;;11.12;61.94;99922.13;114315;1196;103776;-81
2021/04/21 02:20:33;;;;;;;34.87;26.23;;;;;;;11.08;62.24;99919.64;114443;1196;103204;-82
2021/04/21 02:23:09;;;;;;;26.88;23.98;;;;;;;11.06;62.47;99909.02;114421;1196;103214;-82
2021/04/21 02:25:42;;;;;;;37.03;24.60;;;;;;;11.06;62.61;99905.49;114417;1196;103536;-82
2021/04/21 02:28:48;;;;;;;31.23;24.43;;;;;;;11.06;63.09;99914.34;114420;1196;103073;-82
2021/04/21 02:31:38;;;;;;;26.93;23.43;;;;;;;11.09;62.70;99916.03;114326;1196;103790;-82
2021/04/21 02:34:30;;;;;;;31.83;26.70;;;;;;;11.11;63.01;99919.52;114406;1196;103098;-83
2021/04/21 02:37:36;;;;;;;31.63;26.20;;;;;;;11.14;63.25;99914.07;114419;1196;103063;-82
2021/04/21 02:40:14;;;;;;;33.27;28.17;;;;;;;11.13;63.25;99913.22;114821;1196;103118;-83
2021/04/21 02:43:17;;;;;;;33.33;26.95;;;;;;;11.12;63.25;99915.94;115380;1199;103280;-83
2021/04/21 02:46:17;;;;;;;31.73;27.20;;;;;;;11.07;63.81;99901.91;113909;1199;103121;-83
2021/04/21 02:48:53;;;;;;;32.73;25.63;;;;;;;11.01;64.17;99900.34;113942;1200;103386;-82
2021/04/21 02:51:43;;;;;;;27.00;23.77;;;;;;;11.03;64.14;99899.34;114081;1199;103239;-83
2021/04/21 02:54:20;;;;;;;29.30;26.10;;;;;;;11.01;64.96;99892.35;114034;1199;103313;-83
2021/04/21 02:56:57;;;;;;;30.35;24.53;;;;;;;11.04;64.52;99893.09;114007;1199;103610;-82
2021/04/21 02:59:39;;;;;;;34.93;26.78;;;;;;;11.15;63.86;99895.36;114041;1199;103318;-82
2021/04/21 03:02:10;;;;;;;30.80;25.53;;;;;;;11.12;65.01;99883.96;114068;1199;103934;-83
2021/04/21 03:04:46;;;;;;;30.60;25.40;;;;;;;11.11;65.67;99874.22;114060;1200;103799;-83
2021/04/21 03:07:20;;;;;;;31.15;26.80;;;;;;;10.94;66.62;99875.72;116345;1200;101654;-83
2021/04/21 03:09:54;;;;;;;36.17;27.03;;;;;;;10.79;66.95;99873.59;115705;1200;103169;-82
2021/04/21 03:12:29;;;;;;;30.25;27.00;;;;;;;10.86;66.75;99873.33;116392;1200;101353;-83
2021/04/21 03:15:08;;;;;;;29.27;26.17;;;;;;;10.96;66.55;99872.99;116388;1200;101550;-83
2021/04/21 03:17:35;;;;;;;33.30;27.53;;;;;;;10.98;66.35;99895.11;114614;1200;103255;-83
2021/04/21 03:20:06;;;;;;;38.70;27.60;;;;;;;10.98;66.25;99895.11;113813;1199;103213;-85
2021/04/21 03:22:34;;;;;;;45.67;30.53;;;;;;;11.06;66.80;99890.36;114111;1200;103162;-83
2021/04/21 03:25:31;;;;;;;34.10;27.73;;;;;;;11.09;66.17;99892.05;113698;1199;103245;-82
2021/04/21 03:27:59;;;;;;;30.25;26.40;;;;;;;11.00;67.04;99882.61;113592;1199;103428;-84
2021/04/21 03:30:29;;;;;;;29.80;26.67;;;;;;;11.01;67.29;99895.02;113646;1198;103198;-84
2021/04/21 03:33:16;;;;;;;32.67;28.67;;;;;;;11.00;66.53;99895.94;114801;1200;103281;-83
2021/04/21 03:35:51;;;;;;;33.80;27.20;;;;;;;11.03;66.21;99893.15;113790;1200;103281;-83
2021/04/21 03:38:20;;;;;;;33.40;28.15;;;;;;;10.99;66.71;99904.84;113952;1196;103240;-83
2021/04/21 03:40:47;;;;;;;34.40;28.55;;;;;;;10.98;66.31;99908.42;114329;1197;103150;-84
2021/04/21 03:43:15;;;;;;;33.25;28.10;;;;;;;10.94;66.53;99902.36;114540;1196;103233;-83
2021/04/21 03:45:46;;;;;;;29.33;25.33;;;;;;;10.99;66.49;99905.70;114723;1196;103019;-83
2021/04/21 03:48:15;;;;;;;33.30;27.67;;;;;;;10.97;66.52;99912.91;114368;1196;103210;-83
2021/04/21 03:50:43;;;;;;;30.85;27.13;;;;;;;10.97;66.35;99914.67;114390;1196;103048;-83
2021/04/21 03:53:10;;;;;;;35.73;28.20;;;;;;;10.97;66.39;99920.00;114109;1196;103147;-83
2021/04/21 03:55:37;;;;;;;31.43;26.37;;;;;;;10.92;67.13;99914.00;114304;1199;103206;-84
2021/04/21 03:58:07;;;;;;;34.10;27.75;;;;;;;10.89;66.43;99920.30;114382;1196;103478;-83
2021/04/21 04:00:36;;;;;;;32.20;26.67;;;;;;;10.93;67.50;99910.38;116796;1196;100898;-84
2021/04/21 04:03:08;;;;;;;32.80;28.63;;;;;;;10.83;67.33;99902.72;115185;1196;103131;-83
2021/04/21 04:05:44;;;;;;;35.43;29.20;;;;;;;10.77;67.81;99900.29;115175;1196;103185;-83
2021/04/21 04:08:13;;;;;;;32.23;27.57;;;;;;;10.64;68.58;99893.66;114321;1196;103296;-83
2021/04/21 04:10:48;;;;;;;31.67;27.80;;;;;;;10.61;68.40;99897.30;116727;1196;100947;-83
2021/04/21 04:13:16;;;;;;;31.40;26.57;;;;;;;10.64;68.61;99904.30;114580;1196;103134;-83
2021/04/21 04:15:44;;;;;;;35.53;29.33;;;;;;;10.61;68.84;99902.62;114661;1196;103034;-84
2021/04/21 04:18:25;;;;;;;32.20;26.60;;;;;;;10.47;69.10;99892.42;116623;1196;101971;-82
2021/04/21 04:20:54;;;;;;;33.65;29.55;;;;;;;10.43;69.20;99896.11;116750;1196;101518;-83
2021/04/21 04:23:24;;;;;;;38.03;31.20;;;;;;;10.48;69.20;99902.16;115786;1196;101921;-83
2021/04/21 04:25:52;;;;;;;45.03;33.00;;;;;;;10.49;69.43;99895.92;114316;1196;103201;-83
2021/04/21 04:28:19;;;;;;;39.35;30.80;;;;;;;10.49;69.27;99901.24;114344;1197;103122;-83
2021/04/21 04:30:46;;;;;;;35.65;30.63;;;;;;;10.56;68.92;99909.03;114549;1196;103204;-82
2021/04/21 04:33:16;;;;;;;35.50;29.38;;;;;;;10.60;68.85;99906.20;114242;1195;103131;-83
2021/04/21 04:35:43;;;;;;;39.58;30.53;;;;;;;10.57;69.01;99902.76;116750;1196;101797;-83
2021/04/21 04:38:12;;;;;;;34.73;30.87;;;;;;;10.51;68.66;99907.37;116330;1196;101086;-82
2021/04/21 04:40:39;;;;;;;34.97;29.00;;;;;;;10.52;68.42;99911.78;116593;1196;101238;-83
2021/04/21 04:43:06;;;;;;;32.70;27.95;;;;;;;10.60;68.92;99908.86;116610;1196;101019;-83
2021/04/21 04:45:33;;;;;;;32.85;27.55;;;;;;;10.71;68.25;99916.47;114305;1196;103102;-82
2021/04/21 04:48:04;;;;;;;30.18;26.98;;;;;;;10.75;68.16;99914.58;116418;1196;101092;-82
2021/04/21 04:50:32;;;;;;;33.87;27.47;;;;;;;10.82;68.29;99918.76;116644;1196;101541;-83
2021/04/21 04:52:59;;;;;;;31.40;25.40;;;;;;;10.90;67.72;99922.02;115413;1196;103149;-83
2021/04/21 04:55:28;;;;;;;33.80;26.60;;;;;;;10.92;67.69;99917.52;114298;1196;103118;-84
2021/04/21 04:57:57;;;;;;;30.87;27.70;;;;;;;10.99;67.39;99912.84;114328;1196;103089;-82
2021/04/21 05:00:28;;;;;;;55.85;47.85;;;;;;;11.08;67.27;99912.52;114378;1196;103252;-82
2021/04/21 05:02:56;;;;;;;35.20;29.63;;;;;;;11.11;67.08;99911.53;114729;1196;104007;-82
2021/04/21 05:05:22;;;;;;;32.83;26.67;;;;;;;11.16;67.24;99909.57;116741;1196;101590;-83
2021/04/21 05:08:12;;;;;;;29.53;25.38;;;;;;;11.23;66.70;99902.22;116734;1196;101796;-83
2021/04/21 05:10:53;;;;;;;30.37;25.90;;;;;;;11.32;66.88;99913.40;116576;1196;102143;-83
2021/04/21 05:13:24;;;;;;;29.60;26.33;;;;;;;11.30;66.43;99917.05;116649;1196;100973;-84
2021/04/21 05:16:12;;;;;;;30.33;25.03;;;;;;;11.36;66.87;99915.02;116710;1196;101942;-83
2021/04/21 05:19:08;;;;;;;30.63;26.17;;;;;;;11.41;66.32;99905.97;115803;1196;103197;-85
2021/04/21 05:22:13;;;;;;;27.20;24.13;;;;;;;11.49;66.09;99902.10;114591;1197;103092;-83
2021/04/21 05:25:04;;;;;;;33.43;27.80;;;;;;;11.54;65.30;99913.47;114594;1196;103131;-83
2021/04/21 05:27:33;;;;;;;28.90;25.40;;;;;;;11.60;65.67;99909.69;114508;1196;103273;-84
2021/04/21 05:30:25;;;;;;;30.13;25.40;;;;;;;11.60;65.50;99909.69;114699;1196;103032;-84
2021/04/21 05:33:16;;;;;;;28.43;25.45;;;;;;;11.54;65.59;99912.58;114428;1196;103038;-84
2021/04/21 05:36:08;;;;;;;28.17;25.23;;;;;;;11.46;65.42;99907.56;114721;1196;104318;-83
2021/04/21 05:38:54;;;;;;;29.67;25.60;;;;;;;11.49;65.33;99912.77;114349;1196;103093;-82
2021/04/21 05:41:27;;;;;;;31.13;24.10;;;;;;;11.45;65.52;99912.92;114148;1196;103301;-82
2021/04/21 05:44:31;;;;;;;37.97;27.53;;;;;;;11.45;65.15;99905.81;114114;1196;104970;-82
2021/04/21 05:47:16;;;;;;;31.30;25.17;;;;;;;11.51;65.02;99902.89;114202;1196;103428;-83
2021/04/21 05:50:07;;;;;;;30.97;26.47;;;;;;;11.61;64.91;99903.43;114268;1196;103392;-83
2021/04/21 05:52:42;;;;;;;27.78;24.73;;;;;;;11.69;64.25;99903.14;114245;1196;103171;-82
2021/04/21 05:55:27;;;;;;;32.83;25.53;;;;;;;11.72;64.55;99913.69;114131;1196;103251;-83
2021/04/21 05:58:17;;;;;;;31.17;23.10;;;;;;;11.81;64.10;99913.33;114162;1196;103306;-82
2021/04/21 06:01:16;;;;;;;28.93;22.47;;;;;;;11.86;63.85;99905.13;114128;1196;103197;-83
2021/04/21 06:03:58;;;;;;;26.73;23.37;;;;;;;11.83;63.76;99913.26;114127;1196;103079;-83
2021/04/21 06:06:26;;;;;;;25.50;22.83;;;;;;;11.83;63.81;99907.92;114152;1196;103191;-83
2021/04/21 06:08:53;;;;;;;26.58;23.58;;;;;;;11.85;63.97;99906.94;113890;1196;103181;-84
2021/04/21 06:11:29;;;;;;;28.23;22.50;;;;;;;11.90;64.54;99917.41;114149;1196;103127;-84
2021/04/21 06:14:01;;;;;;;32.10;25.88;;;;;;;12.01;63.29;99911.70;114002;1196;103183;-84
2021/04/21 06:16:29;;;;;;;28.13;22.57;;;;;;;11.97;63.67;99910.06;114453;1196;102995;-86
2021/04/21 06:19:03;;;;;;;29.53;22.13;;;;;;;12.01;63.25;99917.05;113869;1196;103144;-83
2021/04/21 06:21:34;;;;;;;34.18;25.08;;;;;;;12.02;63.13;99914.31;116723;1196;102175;-84
2021/04/21 06:24:01;;;;;;;32.80;23.73;;;;;;;11.99;63.39;99908.21;116723;1196;101375;-83
2021/04/21 06:26:31;;;;;;;25.57;22.63;;;;;;;12.04;63.25;99914.23;115609;1196;103124;-82
2021/04/21 06:29:05;;;;;;;25.07;21.60;;;;;;;12.11;62.94;99904.19;115101;1196;103285;-82
2021/04/21 06:31:43;;;;;;;30.33;23.07;;;;;;;12.25;62.80;99903.61;113997;1196;103240;-83
2021/04/21 06:34:12;;;;;;;25.17;21.90;;;;;;;12.30;62.92;99905.17;114033;1196;103269;-82
2021/04/21 06:36:43;;;;;;;29.25;24.10;;;;;;;12.40;62.49;99899.45;116544;1196;101286;-83
2021/04/21 06:39:11;;;;;;;25.48;22.48;;;;;;;12.49;62.34;99902.59;116615;1196;102140;-82
2021/04/21 06:41:39;;;;;;;26.10;20.57;;;;;;;12.57;62.32;99901.38;116716;1196;101967;-82
2021/04/21 06:44:06;;;;;;;30.97;22.47;;;;;;;12.59;61.36;99908.41;116758;1196;101129;-83
2021/04/21 06:46:51;;;;;;;23.80;20.80;;;;;;;12.59;60.76;99897.72;116735;1196;101015;-82
2021/04/21 06:49:22;;;;;;;27.45;22.38;;;;;;;12.65;61.16;99899.28;115903;1196;101941;-82
2021/04/21 06:51:50;;;;;;;23.73;20.03;;;;;;;12.70;61.25;99899.92;114100;1196;103242;-82
2021/04/21 06:54:21;;;;;;;25.03;21.17;;;;;;;12.81;61.54;99899.45;115818;1196;103102;-83
2021/04/21 06:56:49;;;;;;;24.53;20.83;;;;;;;12.93;61.43;99898.94;114154;1196;103064;-83
2021/04/21 06:59:20;;;;;;;21.05;18.80;;;;;;;13.08;61.03;99897.38;114275;1196;103105;-83
2021/04/21 07:01:50;;;;;;;22.10;18.73;;;;;;;13.13;59.79;99902.50;114192;1196;103246;-83
2021/04/21 07:04:19;;;;;;;21.50;19.30;;;;;;;13.20;59.84;99894.14;115550;1196;103107;-83
2021/04/21 07:06:49;;;;;;;19.95;17.85;;;;;;;13.29;58.79;99900.89;116740;1196;101333;-84
2021/04/21 07:09:20;;;;;;;22.83;17.48;;;;;;;13.36;58.45;99891.67;114791;1196;103162;-82
2021/04/21 07:11:56;;;;;;;21.70;16.97;;;;;;;13.45;58.66;99884.15;116623;1196;101867;-81
2021/04/21 07:14:23;;;;;;;20.10;16.95;;;;;;;13.52;58.01;99891.83;114865;1196;103112;-83
2021/04/21 07:16:52;;;;;;;20.55;16.55;;;;;;;13.56;57.79;99895.23;114090;1197;103140;-82
2021/04/21 07:19:23;;;;;;;19.03;17.10;;;;;;;13.57;57.43;99880.92;114082;1196;103115;-82
2021/04/21 07:21:52;;;;;;;22.93;17.80;;;;;;;13.60;57.64;99890.61;115199;1196;103159;-83
2021/04/21 07:24:31;;;;;;;19.40;15.87;;;;;;;13.62;56.83;99888.72;114703;1195;103100;-85
2021/04/21 07:26:59;;;;;;;22.07;18.60;;;;;;;13.63;57.39;99895.81;114110;1196;103293;-82
2021/04/21 07:29:27;;;;;;;19.37;16.60;;;;;;;13.65;56.48;99883.24;114346;1196;103332;-83
2021/04/21 07:31:54;;;;;;;20.58;17.53;;;;;;;13.74;56.88;99884.59;114344;1196;102990;-85
2021/04/21 07:34:34;;;;;;;23.88;16.93;;;;;;;13.79;55.88;99902.16;114334;1196;103022;-83
2021/04/21 07:37:02;;;;;;;23.35;18.63;;;;;;;13.77;56.08;99898.70;114553;1198;103836;-83
2021/04/21 07:39:39;;;;;;;23.53;19.93;;;;;;;13.78;56.02;99895.09;113843;1199;103255;-83
2021/04/21 07:42:26;;;;;;;20.10;18.10;;;;;;;13.91;55.84;99899.85;113871;1200;103495;-81
2021/04/21 07:44:55;;;;;;;21.60;18.27;;;;;;;14.02;56.05;99905.54;113812;1199;103268;-81
2021/04/21 07:47:23;;;;;;;26.73;19.67;;;;;;;14.14;55.71;99899.61;114017;1200;103367;-82
2021/04/21 07:49:59;;;;;;;25.23;20.03;;;;;;;14.19;55.74;99902.04;113948;1200;103396;-85
2021/04/21 07:52:30;;;;;;;23.90;19.80;;;;;;;14.24;56.20;99896.47;113840;1199;103485;-82
2021/04/21 07:55:13;;;;;;;28.38;22.10;;;;;;;14.40;55.99;99907.30;113693;1200;103204;-82
2021/04/21 07:57:44;;;;;;;23.45;18.33;;;;;;;14.41;54.76;99909.89;113748;1199;103507;-81
2021/04/21 08:00:23;;;;;;;24.38;20.63;;;;;;;14.50;55.69;99903.18;116590;1199;101151;-84
2021/04/21 08:02:50;;;;;;;24.27;20.20;;;;;;;14.54;55.07;99910.12;114122;1199;103120;-83
2021/04/21 08:05:18;;;;;;;26.47;22.77;;;;;;;14.45;55.28;99906.11;113899;1199;103341;-82
2021/04/21 08:07:57;;;;;;;26.50;20.65;;;;;;;14.34;55.79;99905.77;113756;1199;103204;-82
2021/04/21 08:10:39;;;;;;;23.70;21.35;;;;;;;14.18;56.33;99911.90;113630;1203;103281;-83
2021/04/21 08:13:08;;;;;;;24.57;20.83;;;;;;;14.08;56.56;99910.61;114083;1202;103419;-82
2021/04/21 08:15:49;;;;;;;24.95;22.15;;;;;;;13.93;56.41;99908.66;113774;1199;103271;-84
2021/04/21 08:18:16;;;;;;;22.67;19.80;;;;;;;13.81;57.03;99919.03;113819;1200;103348;-84
2021/04/21 08:20:45;;;;;;;24.47;19.97;;;;;;;13.77;57.05;99912.09;113708;1199;103261;-83
2021/04/21 08:23:28;;;;;;;23.67;19.77;;;;;;;13.73;56.73;99923.88;114030;1196;103223;-83
2021/04/21 08:25:55;;;;;;;24.70;21.23;;;;;;;13.72;57.17;99914.11;113941;1196;103092;-82
2021/04/21 08:28:22;;;;;;;30.50;21.15;;;;;;;13.89;57.31;99924.02;114095;1196;103121;-83
2021/04/21 08:30:53;;;;;;;23.70;19.53;;;;;;;14.01;56.70;99911.86;114152;1196;103077;-83
2021/04/21 08:33:20;;;;;;;20.00;17.35;;;;;;;14.01;56.71;99915.39;114429;1196;103048;-83
2021/04/21 08:35:46;;;;;;;27.40;20.93;;;;;;;14.01;56.77;99917.22;114108;1196;102977;-83
2021/04/21 08:38:15;;;;;;;25.93;20.97;;;;;;;14.03;56.36;99918.88;114190;1196;103604;-83
2021/04/21 08:40:42;;;;;;;26.40;19.98;;;;;;;14.05;56.71;99916.98;114797;1196;103227;-82
2021/04/21 08:43:11;;;;;;;38.98;20.10;;;;;;;14.13;56.20;99915.72;114213;1196;103125;-83
2021/04/21 08:45:41;;;;;;;25.50;22.80;;;;;;;14.09;57.10;99920.38;115552;1196;103083;-83
2021/04/21 08:48:13;;;;;;;30.97;23.00;;;;;;;14.24;57.03;99916.08;116040;1196;103086;-84
2021/04/21 08:50:41;;;;;;;28.80;23.87;;;;;;;14.29;57.57;99919.40;114074;1196;103201;-82
2021/04/21 08:53:09;;;;;;;24.90;22.40;;;;;;;14.45;57.32;99922.19;114003;1196;103101;-84
2021/04/21 08:55:38;;;;;;;24.73;22.15;;;;;;;14.51;56.59;99923.68;114795;1196;103194;-84
2021/04/21 08:58:08;;;;;;;27.30;23.63;;;;;;;14.51;56.48;99921.89;114481;1196;103114;-84
2021/04/21 09:00:50;;;;;;;24.88;22.33;;;;;;;14.60;56.59;99922.36;114180;1196;103571;-83
2021/04/21 09:03:18;;;;;;;28.15;21.55;;;;;;;14.88;56.67;99920.01;114214;1197;103089;-83
2021/04/21 09:05:46;;;;;;;25.10;21.90;;;;;;;15.24;56.81;99922.67;114133;1196;103271;-83
2021/04/21 09:08:12;;;;;;;27.37;22.83;;;;;;;15.35;55.48;99923.83;114163;1196;103082;-83
2021/04/21 09:10:39;;;;;;;25.70;20.20;;;;;;;15.50;55.03;99919.44;114045;1196;103242;-83
2021/04/21 09:13:08;;;;;;;29.27;22.83;;;;;;;16.06;53.40;99916.41;114004;1196;103220;-83
2021/04/21 09:15:35;;;;;;;27.93;24.63;;;;;;;16.67;52.25;99920.02;114181;1196;103166;-84
2021/04/21 09:18:01;;;;;;;26.25;23.08;;;;;;;17.27;50.35;99910.14;114123;1200;103294;-84
2021/04/21 09:20:47;;;;;;;21.88;18.85;;;;;;;18.72;48.25;99906.16;116098;1196;102958;-84
2021/04/21 09:23:15;;;;;;;24.20;18.68;;;;;;;20.25;43.74;99909.86;114120;1196;103188;-85
2021/04/21 09:25:46;;;;;;;26.65;19.95;;;;;;;21.32;41.92;99899.88;114087;1196;103157;-87
2021/04/21 09:28:13;;;;;;;20.10;18.10;;;;;;;22.12;39.28;99893.42;114094;1196;103092;-84
2021/04/21 09:30:44;;;;;;;22.10;17.95;;;;;;;23.31;38.43;99896.09;114591;1196;103170;-85
2021/04/21 09:33:11;;;;;;;21.30;18.93;;;;;;;24.18;34.41;99890.13;116365;1196;103198;-87
2021/04/21 09:35:43;;;;;;;19.33;17.05;;;;;;;24.94;34.61;99895.87;113991;1196;103111;-83
2021/04/21 09:38:30;;;;;;;19.15;16.15;;;;;;;25.69;32.74;99895.97;114036;1196;103258;-83
2021/04/21 09:40:59;;;;;;;19.28;16.85;;;;;;;26.21;30.75;99881.77;114054;1196;103666;-85
2021/04/21 09:43:28;;;;;;;17.85;15.30;;;;;;;26.76;30.73;99878.02;113904;1197;103172;-83
2021/04/21 09:46:00;;;;;;;16.48;13.90;;;;;;;27.39;27.32;99873.38;113717;1196;103235;-85
2021/04/21 09:48:32;;;;;;;18.15;16.10;;;;;;;28.08;27.61;99877.94;113500;1196;103172;-85
2021/04/21 09:51:18;;;;;;;17.93;14.65;;;;;;;28.59;27.26;99872.36;113907;1196;103118;-83
2021/04/21 09:53:47;;;;;;;17.33;14.80;;;;;;;28.32;26.34;99880.74;113806;1196;103137;-83
2021/04/21 09:56:26;;;;;;;18.55;12.93;;;;;;;28.29;26.30;99869.27;113752;1196;103092;-84
2021/04/21 09:58:55;;;;;;;18.83;14.63;;;;;;;28.89;26.06;99873.59;113749;1196;103127;-83
2021/04/21 10:01:33;;;;;;;15.30;12.30;;;;;;;29.53;25.39;99867.30;113854;1196;103571;-83
2021/04/21 10:04:25;;;;;;;13.73;11.90;;;;;;;30.12;22.94;99858.63;113603;1199;103188;-83
2021/04/21 10:06:54;;;;;;;14.77;13.20;;;;;;;30.11;22.82;99865.17;115901;1199;103150;-84
2021/04/21 10:09:35;;;;;;;12.77;11.00;;;;;;;30.35;22.61;99860.56;114002;1200;103230;-85
2021/04/21 10:12:14;;;;;;;16.87;13.33;;;;;;;30.60;23.52;99852.98;114119;1199;103636;-86
2021/04/21 10:14:43;;;;;;;18.45;12.25;;;;;;;30.88;22.92;99852.39;114163;1199;104644;-83
2021/04/21 10:17:24;;;;;;;14.00;12.55;;;;;;;30.24;24.10;99855.47;116522;1198;102214;-82
2021/04/21 10:19:51;;;;;;;10.65;9.13;;;;;;;30.92;20.86;99845.47;113843;1199;103173;-85
2021/04/21 10:22:18;;;;;;;8.70;7.35;;;;;;;31.26;19.50;99830.38;113738;1196;103240;-85
2021/04/21 10:24:47;;;;;;;10.35;7.60;;;;;;;31.74;19.71;99837.41;113893;1197;103671;-82
2021/04/21 10:27:16;;;;;;;8.28;7.43;;;;;;;32.21;18.68;99832.45;114089;1196;103198;-82
2021/04/21 10:29:44;;;;;;;9.48;7.28;;;;;;;32.48;17.23;99834.42;113968;1196;103942;-80
2021/04/21 10:32:14;;;;;;;12.33;8.53;;;;;;;31.83;18.49;99826.08;113932;1196;103243;-81
2021/04/21 10:34:45;;;;;;;10.13;8.03;;;;;;;31.68;18.56;99833.50;114191;1196;103150;-82
2021/04/21 10:37:14;;;;;;;11.28;8.68;;;;;;;31.87;18.27;99829.30;113908;1196;103166;-81
2021/04/21 10:39:43;;;;;;;10.40;8.33;;;;;;;31.62;18.06;99826.03;114039;1197;103258;-80
2021/04/21 10:42:17;;;;;;;10.65;8.65;;;;;;;31.76;17.93;99816.02;114384;1196;103153;-81
2021/04/21 10:44:47;;;;;;;8.60;7.17;;;;;;;32.19;19.02;99816.13;113913;1196;103268;-82
2021/04/21 10:47:19;;;;;;;8.90;7.75;;;;;;;31.75;17.76;99817.06;114266;1196;103146;-81
2021/04/21 10:49:58;;;;;;;8.33;6.90;;;;;;;30.25;17.40;99803.09;114224;1196;103192;-81
2021/04/21 10:52:28;;;;;;;7.70;6.35;;;;;;;28.78;19.92;99822.72;113992;1196;103808;-87
2021/04/21 10:54:56;;;;;;;6.58;5.95;;;;;;;27.49;21.22;99811.18;114431;1196;103085;-85
2021/04/21 10:57:26;;;;;;;10.48;6.35;;;;;;;26.49;22.66;99802.50;113875;1196;103092;-84
2021/04/21 11:00:13;;;;;;;9.68;6.05;;;;;;;25.69;23.61;99815.00;113744;1199;103952;-81
2021/04/21 11:02:40;;;;;;;9.43;5.40;;;;;;;25.09;23.42;99817.28;114537;1196;103073;-82
2021/04/21 11:05:09;;;;;;;11.90;6.48;;;;;;;24.51;24.46;99811.78;113954;1196;103246;-83
2021/04/21 11:07:40;;;;;;;15.43;7.30;;;;;;;23.78;25.83;99813.99;114890;1196;103157;-84
2021/04/21 11:10:08;;;;;;;11.17;6.10;;;;;;;23.18;26.32;99806.69;114141;1196;103197;-83
2021/04/21 11:12:54;;;;;;;6.48;5.63;;;;;;;22.59;25.98;99809.02;113867;1196;103201;-84
2021/04/21 11:15:35;;;;;;;7.60;5.53;;;;;;;22.00;27.10;99813.09;114978;1196;103121;-84
2021/04/21 11:18:07;;;;;;;8.13;6.17;;;;;;;21.60;27.09;99816.41;114421;1196;103009;-84
2021/04/21 11:20:53;;;;;;;10.40;5.55;;;;;;;21.17;28.49;99805.32;113916;1196;103146;-82
2021/04/21 11:23:50;;;;;;;8.35;5.10;;;;;;;20.72;28.09;99810.70;116670;1196;101170;-80
2021/04/21 11:26:30;;;;;;;12.23;5.00;;;;;;;20.42;28.87;99817.49;114300;1196;103201;-84
2021/04/21 11:29:02;;;;;;;7.93;6.37;;;;;;;20.16;28.71;99808.66;114232;1196;103191;-85
2021/04/21 11:31:51;;;;;;;7.20;5.40;;;;;;;19.87;28.84;99803.60;114457;1196;103092;-85
2021/04/21 11:34:32;;;;;;;13.70;5.80;;;;;;;19.59;28.88;99802.91;114339;1196;103092;-82
2021/04/21 11:37:05;;;;;;;9.40;5.30;;;;;;;19.38;30.07;99803.52;113825;1196;103360;-81